createdAt,value
2019-05-21T00:00:26.417Z,85.40
2019-05-21T00:02:52.586Z,85.40
2019-05-21T00:05:18.831Z,85.40
2019-05-21T00:07:45.044Z,85.30
2019-05-21T00:10:11.483Z,85.60
2019-05-21T00:12:37.764Z,85.80
2019-05-21T00:15:05.036Z,85.90
2019-05-21T00:17:31.327Z,85.80
2019-05-21T00:19:57.576Z,85.80
2019-05-21T00:22:23.751Z,85.70
2019-05-21T00:24:49.982Z,85.70
2019-05-21T00:27:16.406Z,85.90
2019-05-21T00:30:19.922Z,85.80
2019-05-21T00:33:23.243Z,85.80
2019-05-21T00:36:26.755Z,85.80
2019-05-21T00:39:30.241Z,85.90
2019-05-21T00:42:02.852Z,85.90
2019-05-21T00:44:41.148Z,86.00
2019-05-21T00:47:09.033Z,85.80
2019-05-21T00:49:35.211Z,86.00
2019-05-21T00:52:08.212Z,86.00
2019-05-21T00:54:29.555Z,85.80
2019-05-21T00:56:55.725Z,85.90
2019-05-21T00:59:21.941Z,86.50
2019-05-21T01:01:48.110Z,85.80
2019-05-21T01:04:14.290Z,85.80
2019-05-21T01:06:40.942Z,85.80
2019-05-21T01:09:07.674Z,85.70
2019-05-21T01:11:33.861Z,85.50
2019-05-21T01:14:00.046Z,85.60
2019-05-21T01:16:26.522Z,85.70
2019-05-21T01:18:52.818Z,85.80
2019-05-21T01:21:18.989Z,85.70
2019-05-21T01:23:45.155Z,85.60
2019-05-21T01:26:11.401Z,85.40
2019-05-21T01:28:37.610Z,85.30
2019-05-21T01:31:03.823Z,85.40
2019-05-21T01:33:30.022Z,85.20
2019-05-21T01:35:56.193Z,85.50
2019-05-21T01:38:22.401Z,85.30
2019-05-21T01:40:48.576Z,85.20
2019-05-21T01:43:14.839Z,85.30
2019-05-21T01:45:41.001Z,85.20
2019-05-21T01:48:07.367Z,85.30
2019-05-21T01:50:33.666Z,85.30
2019-05-21T01:53:00.091Z,85.50
2019-05-21T01:55:26.237Z,85.60
2019-05-21T01:57:52.489Z,85.70
2019-05-21T02:00:18.775Z,85.60
2019-05-21T02:02:44.959Z,85.50
2019-05-21T02:05:11.451Z,85.40
2019-05-21T02:07:37.856Z,85.40
2019-05-21T02:10:05.963Z,85.30
2019-05-21T02:12:32.264Z,85.30
2019-05-21T02:14:58.536Z,85.40
2019-05-21T02:17:24.826Z,85.60
2019-05-21T02:19:50.995Z,85.70
2019-05-21T02:22:17.393Z,85.50
2019-05-21T02:24:43.586Z,85.70
2019-05-21T02:27:09.755Z,85.70
2019-05-21T02:29:35.932Z,85.50
2019-05-21T02:32:02.236Z,85.20
2019-05-21T02:34:28.498Z,85.20
2019-05-21T02:36:54.922Z,85.30
2019-05-21T02:39:21.114Z,85.40
2019-05-21T02:41:47.359Z,85.40
2019-05-21T02:44:13.623Z,85.50
2019-05-21T02:46:39.776Z,85.60
2019-05-21T02:49:05.970Z,85.40
2019-05-21T02:51:32.368Z,85.40
2019-05-21T02:53:58.585Z,85.40
2019-05-21T02:56:24.879Z,85.40
2019-05-21T02:58:51.063Z,85.50
2019-05-21T03:01:32.040Z,85.40
2019-05-21T03:03:58.286Z,85.60
2019-05-21T03:06:24.501Z,85.30
2019-05-21T03:08:50.746Z,85.20
2019-05-21T03:11:17.113Z,85.10
2019-05-21T03:13:43.319Z,85.10
2019-05-21T03:16:09.473Z,85.10
2019-05-21T03:18:35.676Z,85.00
2019-05-21T03:21:01.854Z,85.00
2019-05-21T03:23:28.069Z,85.30
2019-05-21T03:25:54.398Z,85.00
2019-05-21T03:28:20.799Z,84.90
2019-05-21T03:30:47.095Z,85.00
2019-05-21T03:33:13.441Z,85.70
2019-05-21T03:35:39.745Z,85.00
2019-05-21T03:38:06.040Z,85.10
2019-05-21T03:40:32.362Z,84.90
2019-05-21T03:42:58.706Z,84.90
2019-05-21T03:45:24.925Z,84.80
2019-05-21T03:47:51.464Z,84.80
2019-05-21T03:50:17.733Z,84.80
2019-05-21T03:52:43.907Z,84.90
2019-05-21T03:55:10.826Z,84.70
2019-05-21T03:57:37.072Z,84.60
2019-05-21T04:00:09.647Z,84.70
2019-05-21T04:02:36.157Z,84.70
2019-05-21T04:05:04.608Z,84.50
2019-05-21T04:07:30.864Z,84.50
2019-05-21T04:09:57.206Z,84.20
2019-05-21T04:12:23.390Z,84.40
2019-05-21T04:14:54.432Z,84.30
2019-05-21T04:17:35.039Z,84.40
2019-05-21T04:20:02.429Z,84.60
2019-05-21T04:22:28.736Z,84.60
2019-05-21T04:24:54.998Z,84.50
2019-05-21T04:27:21.301Z,84.50
2019-05-21T04:29:47.488Z,84.50
2019-05-21T04:32:13.697Z,84.40
2019-05-21T04:34:39.967Z,84.20
2019-05-21T04:37:10.763Z,84.10
2019-05-21T04:39:34.657Z,84.10
2019-05-21T04:42:00.925Z,84.20
2019-05-21T04:44:27.157Z,84.10
2019-05-21T04:46:53.547Z,84.00
2019-05-21T04:49:19.949Z,83.70
2019-05-21T04:51:46.729Z,83.90
2019-05-21T04:54:14.168Z,84.10
2019-05-21T04:56:41.000Z,84.20
2019-05-21T04:59:07.788Z,84.10
2019-05-21T05:01:34.293Z,84.30
2019-05-21T05:04:01.028Z,84.10
2019-05-21T05:06:27.554Z,84.20
2019-05-21T05:08:53.891Z,84.00
2019-05-21T05:11:20.420Z,83.90
2019-05-21T05:13:46.852Z,83.80
2019-05-21T05:16:13.214Z,83.90
2019-05-21T05:18:39.688Z,83.60
2019-05-21T05:21:06.049Z,83.90
2019-05-21T05:23:32.448Z,84.10
2019-05-21T05:25:58.852Z,84.00
2019-05-21T05:28:25.291Z,83.80
2019-05-21T05:30:51.772Z,83.90
2019-05-21T05:33:18.160Z,83.90
2019-05-21T05:35:44.842Z,84.20
2019-05-21T05:38:11.422Z,84.50
2019-05-21T05:40:37.736Z,84.50
2019-05-21T05:43:04.159Z,84.40
2019-05-21T05:45:30.816Z,84.20
2019-05-21T05:47:57.088Z,84.10
2019-05-21T05:50:25.425Z,84.00
2019-05-21T05:52:51.937Z,84.20
2019-05-21T05:55:18.633Z,84.40
2019-05-21T05:57:44.973Z,84.30
2019-05-21T06:00:12.608Z,84.20
2019-05-21T06:02:39.081Z,84.50
2019-05-21T06:05:06.451Z,84.60
2019-05-21T06:07:33.201Z,84.50
2019-05-21T06:09:59.808Z,84.60
2019-05-21T06:12:26.180Z,84.40
2019-05-21T06:14:53.100Z,84.50
2019-05-21T06:17:19.694Z,84.60
2019-05-21T06:19:46.176Z,84.50
2019-05-21T06:22:12.962Z,84.60
2019-05-21T06:24:39.715Z,84.70
2019-05-21T06:27:06.166Z,85.10
2019-05-21T06:29:32.963Z,85.10
2019-05-21T06:31:59.230Z,84.90
2019-05-21T06:34:25.710Z,85.90
2019-05-21T06:36:52.108Z,85.30
2019-05-21T06:39:18.607Z,85.50
2019-05-21T06:41:45.112Z,85.60
2019-05-21T06:44:11.591Z,85.60
2019-05-21T06:46:38.171Z,85.70
2019-05-21T06:49:04.875Z,85.70
2019-05-21T06:51:31.273Z,85.50
2019-05-21T06:53:57.724Z,85.70
2019-05-21T06:56:24.317Z,85.70
2019-05-21T06:58:50.991Z,85.80
2019-05-21T07:01:17.507Z,85.90
2019-05-21T07:03:44.228Z,85.80
2019-05-21T07:06:10.922Z,85.80
2019-05-21T07:08:37.394Z,86.10
2019-05-21T07:11:03.975Z,86.30
2019-05-21T07:13:31.126Z,86.20
2019-05-21T07:15:58.033Z,86.30
2019-05-21T07:18:24.649Z,86.20
2019-05-21T07:20:51.112Z,86.40
2019-05-21T07:23:17.577Z,86.40
2019-05-21T07:25:44.091Z,86.40
2019-05-21T07:28:10.742Z,86.20
2019-05-21T07:30:37.260Z,86.00
2019-05-21T07:33:03.981Z,85.60
2019-05-21T07:35:30.606Z,85.60
2019-05-21T07:37:57.178Z,85.30
2019-05-21T07:40:23.643Z,85.00
2019-05-21T07:42:50.528Z,85.10
2019-05-21T07:45:17.327Z,84.90
2019-05-21T07:47:43.784Z,85.00
2019-05-21T07:50:11.094Z,85.10
2019-05-21T07:52:37.654Z,85.10
2019-05-21T07:55:04.702Z,84.70
2019-05-21T07:57:31.321Z,84.90
2019-05-21T07:59:57.597Z,85.00
2019-05-21T08:02:24.247Z,84.90
2019-05-21T08:04:50.854Z,85.10
2019-05-21T08:07:17.222Z,85.30
2019-05-21T08:09:43.611Z,85.20
2019-05-21T08:12:27.893Z,84.80
2019-05-21T08:14:38.419Z,85.00
2019-05-21T08:17:05.293Z,85.20
2019-05-21T08:19:32.358Z,85.20
2019-05-21T08:21:59.041Z,85.20
2019-05-21T08:24:25.417Z,85.30
2019-05-21T08:26:52.271Z,85.30
2019-05-21T08:29:18.872Z,85.10
2019-05-21T08:31:45.235Z,85.00
2019-05-21T08:34:12.091Z,85.10
2019-05-21T08:36:38.804Z,85.20
2019-05-21T08:39:06.488Z,85.40
2019-05-21T08:41:33.114Z,85.50
2019-05-21T08:43:59.311Z,85.70
2019-05-21T08:46:25.640Z,85.80
2019-05-21T08:48:52.407Z,85.90
2019-05-21T08:51:18.961Z,86.10
2019-05-21T08:53:45.525Z,86.30
2019-05-21T08:56:12.149Z,86.40
2019-05-21T08:58:38.824Z,85.90
2019-05-21T09:01:05.285Z,85.90
2019-05-21T09:03:31.807Z,85.80
2019-05-21T09:05:58.755Z,85.80
2019-05-21T09:08:26.441Z,85.70
2019-05-21T09:10:53.963Z,85.70
2019-05-21T09:13:20.697Z,85.80
2019-05-21T09:15:47.152Z,86.00
2019-05-21T09:18:13.626Z,85.90
2019-05-21T09:20:40.449Z,85.90
2019-05-21T09:23:06.990Z,86.00
2019-05-21T09:25:33.481Z,85.70
2019-05-21T09:28:00.173Z,85.50
2019-05-21T09:30:26.683Z,85.40
2019-05-21T09:32:53.130Z,85.30
2019-05-21T09:35:20.467Z,85.20
2019-05-21T09:37:47.121Z,85.10
2019-05-21T09:40:15.274Z,85.10
2019-05-21T09:42:45.213Z,85.00
2019-05-21T09:45:10.864Z,84.80
2019-05-21T09:47:37.429Z,84.70
2019-05-21T09:50:05.517Z,84.60
2019-05-21T09:52:32.227Z,84.90
2019-05-21T09:54:58.618Z,85.10
2019-05-21T09:57:29.947Z,84.80
2019-05-21T10:00:02.058Z,84.70
2019-05-21T10:02:31.143Z,84.80
2019-05-21T10:04:57.592Z,84.70
2019-05-21T10:07:39.379Z,84.70
2019-05-21T10:09:52.324Z,84.70
2019-05-21T10:12:18.820Z,84.30
2019-05-21T10:14:45.053Z,84.20
2019-05-21T10:17:11.657Z,84.30
2019-05-21T10:19:38.246Z,84.40
2019-05-21T10:22:04.738Z,84.80
2019-05-21T10:24:31.098Z,84.00
2019-05-21T10:26:57.347Z,83.70
2019-05-21T10:29:23.787Z,83.30
2019-05-21T10:31:50.419Z,83.60
2019-05-21T10:34:18.060Z,83.60
2019-05-21T10:36:44.645Z,83.50
2019-05-21T10:39:11.336Z,83.40
2019-05-21T10:41:37.652Z,83.40
2019-05-21T10:44:04.718Z,83.20
2019-05-21T10:46:30.963Z,82.90
2019-05-21T10:48:57.329Z,83.20
2019-05-21T10:51:23.892Z,83.40
2019-05-21T10:53:50.604Z,83.20
2019-05-21T10:56:17.050Z,83.30
2019-05-21T10:58:43.373Z,83.40
2019-05-21T11:01:11.944Z,83.40
2019-05-21T11:03:52.599Z,83.40
2019-05-21T11:06:19.138Z,83.20
2019-05-21T11:08:45.497Z,82.90
2019-05-21T11:11:11.920Z,82.80
2019-05-21T11:13:39.663Z,82.70
2019-05-21T11:16:06.436Z,83.00
2019-05-21T11:18:33.017Z,82.90
2019-05-21T11:20:59.431Z,82.80
2019-05-21T11:23:25.838Z,82.70
2019-05-21T11:25:52.502Z,82.60
2019-05-21T11:28:18.768Z,82.90
2019-05-21T11:30:45.351Z,82.60
2019-05-21T11:33:11.743Z,81.90
2019-05-21T11:35:38.503Z,81.90
2019-05-21T11:38:04.992Z,81.90
2019-05-21T11:40:31.673Z,81.50
2019-05-21T11:42:58.665Z,81.50
2019-05-21T11:45:32.114Z,81.30
2019-05-21T11:47:54.697Z,81.40
2019-05-21T11:50:21.385Z,82.10
2019-05-21T11:52:47.846Z,81.00
2019-05-21T11:55:15.268Z,80.90
2019-05-21T11:57:41.881Z,81.00
2019-05-21T12:00:09.419Z,80.70
2019-05-21T12:02:37.048Z,80.40
2019-05-21T12:05:05.077Z,80.40
2019-05-21T12:07:31.346Z,80.30
2019-05-21T12:09:57.678Z,80.40
2019-05-21T12:12:24.517Z,80.60
2019-05-21T12:14:51.062Z,80.50
2019-05-21T12:17:17.476Z,81.00
2019-05-21T12:19:43.771Z,80.10
2019-05-21T12:22:10.364Z,80.20
2019-05-21T12:24:37.137Z,80.90
2019-05-21T12:27:03.684Z,79.80
2019-05-21T12:29:33.503Z,79.80
2019-05-21T12:31:58.620Z,79.60
2019-05-21T12:34:24.947Z,79.50
2019-05-21T12:36:51.760Z,79.00
2019-05-21T12:39:18.562Z,79.00
2019-05-21T12:41:45.023Z,78.60
2019-05-21T12:44:11.522Z,78.60
2019-05-21T12:46:38.298Z,78.30
2019-05-21T12:49:05.039Z,78.10
2019-05-21T12:51:31.208Z,77.80
2019-05-21T12:53:57.543Z,77.80
2019-05-21T12:56:23.886Z,77.90
2019-05-21T12:58:50.547Z,77.40
2019-05-21T13:01:16.909Z,77.10
2019-05-21T13:03:43.119Z,77.10
2019-05-21T13:06:09.314Z,77.10
2019-05-21T13:08:36.089Z,77.40
2019-05-21T13:11:02.344Z,77.20
2019-05-21T13:13:28.694Z,77.10
2019-05-21T13:15:54.986Z,76.90
2019-05-21T13:18:21.745Z,76.00
2019-05-21T13:20:48.053Z,75.60
2019-05-21T13:23:14.713Z,74.90
2019-05-21T13:25:42.771Z,75.00
2019-05-21T13:28:09.017Z,75.10
2019-05-21T13:30:35.672Z,75.10
2019-05-21T13:33:02.642Z,74.90
2019-05-21T13:35:29.242Z,74.70
2019-05-21T13:37:55.751Z,74.80
2019-05-21T13:40:22.725Z,74.70
2019-05-21T13:42:49.333Z,74.50
2019-05-21T13:45:15.985Z,74.70
2019-05-21T13:47:42.752Z,75.20
2019-05-21T13:50:09.710Z,74.90
2019-05-21T13:52:36.258Z,75.00
2019-05-21T13:55:06.264Z,74.80
2019-05-21T13:57:33.142Z,74.70
2019-05-21T13:59:59.596Z,75.00
2019-05-21T14:02:26.371Z,75.10
2019-05-21T14:04:53.009Z,74.60
2019-05-21T14:07:19.662Z,74.40
2019-05-21T14:09:46.345Z,74.40
2019-05-21T14:12:13.882Z,74.40
2019-05-21T14:14:40.483Z,74.50
2019-05-21T14:17:08.672Z,74.50
2019-05-21T14:19:35.718Z,74.70
2019-05-21T14:22:02.445Z,73.70
2019-05-21T14:24:29.319Z,73.70
2019-05-21T14:26:55.862Z,73.50
2019-05-21T14:29:22.327Z,73.60
2019-05-21T14:31:48.982Z,73.40
2019-05-21T14:34:15.633Z,73.20
2019-05-21T14:36:42.206Z,73.10
2019-05-21T14:39:13.232Z,73.10
2019-05-21T14:41:39.566Z,73.10
2019-05-21T14:44:05.856Z,73.20
2019-05-21T14:46:32.580Z,73.10
2019-05-21T14:48:58.977Z,73.40
2019-05-21T14:51:25.201Z,73.20
2019-05-21T14:53:53.328Z,73.00
2019-05-21T14:56:19.576Z,72.80
2019-05-21T14:58:46.021Z,73.00
2019-05-21T15:01:12.533Z,72.60
2019-05-21T15:03:39.045Z,72.40
2019-05-21T15:06:05.278Z,72.30
2019-05-21T15:08:32.053Z,72.50
2019-05-21T15:10:58.702Z,72.60
2019-05-21T15:13:25.023Z,72.60
2019-05-21T15:15:51.280Z,72.50
2019-05-21T15:18:22.130Z,72.30
2019-05-21T15:20:47.735Z,72.70
2019-05-21T15:23:14.563Z,72.80
2019-05-21T15:25:41.026Z,72.70
2019-05-21T15:28:07.310Z,72.60
2019-05-21T15:30:33.837Z,72.50
2019-05-21T15:33:00.358Z,72.50
2019-05-21T15:35:26.929Z,72.50
2019-05-21T15:37:53.226Z,72.70
2019-05-21T15:40:20.438Z,72.90
2019-05-21T15:42:51.938Z,73.10
2019-05-21T15:45:15.294Z,73.00
2019-05-21T15:47:42.243Z,73.40
2019-05-21T15:50:09.189Z,73.50
2019-05-21T15:52:35.440Z,73.30
2019-05-21T15:55:06.767Z,73.30
2019-05-21T15:57:31.164Z,73.60
2019-05-21T15:59:57.402Z,73.80
2019-05-21T16:02:23.712Z,73.90
2019-05-21T16:04:50.207Z,74.10
2019-05-21T16:07:16.825Z,74.00
2019-05-21T16:09:43.471Z,74.10
2019-05-21T16:12:09.790Z,74.20
2019-05-21T16:14:36.106Z,74.20
2019-05-21T16:17:02.413Z,74.30
2019-05-21T16:19:28.790Z,74.30
2019-05-21T16:21:54.984Z,74.60
2019-05-21T16:24:21.335Z,74.50
2019-05-21T16:26:47.713Z,74.60
2019-05-21T16:29:14.212Z,74.70
2019-05-21T16:31:40.674Z,74.70
2019-05-21T16:34:06.972Z,75.10
2019-05-21T16:36:33.565Z,75.20
2019-05-21T16:39:00.022Z,75.00
2019-05-21T16:41:27.039Z,74.80
2019-05-21T16:43:53.449Z,75.20
2019-05-21T16:46:20.275Z,75.50
2019-05-21T16:48:47.471Z,75.50
2019-05-21T16:51:14.155Z,75.20
2019-05-21T16:53:40.732Z,75.40
2019-05-21T16:56:07.226Z,75.40
2019-05-21T16:58:33.691Z,75.60
2019-05-21T17:01:00.923Z,76.00
2019-05-21T17:03:27.279Z,75.80
2019-05-21T17:05:53.742Z,76.20
2019-05-21T17:08:20.022Z,76.00
2019-05-21T17:10:46.609Z,76.00
2019-05-21T17:13:13.022Z,75.90
2019-05-21T17:15:39.563Z,75.80
2019-05-21T17:18:06.474Z,76.20
2019-05-21T17:20:34.249Z,75.40
2019-05-21T17:23:01.003Z,75.70
2019-05-21T17:25:27.250Z,75.70
2019-05-21T17:27:53.720Z,75.60
2019-05-21T17:30:20.262Z,75.50
2019-05-21T17:32:46.643Z,75.40
2019-05-21T17:35:13.149Z,75.60
2019-05-21T17:37:39.501Z,75.70
2019-05-21T17:40:06.520Z,75.90
2019-05-21T17:42:33.167Z,75.80
2019-05-21T17:44:59.507Z,75.90
2019-05-21T17:47:25.919Z,75.90
2019-05-21T17:49:52.335Z,76.00
2019-05-21T17:52:18.577Z,76.00
2019-05-21T17:54:56.140Z,76.00
2019-05-21T17:57:13.013Z,76.10
2019-05-21T17:59:39.846Z,76.10
2019-05-21T18:02:08.227Z,76.30
2019-05-21T18:04:35.430Z,76.50
2019-05-21T18:07:02.601Z,76.60
2019-05-21T18:09:29.330Z,76.90
2019-05-21T18:11:55.923Z,76.90
2019-05-21T18:14:22.500Z,77.10
2019-05-21T18:16:49.089Z,77.20
2019-05-21T18:19:15.868Z,77.30
2019-05-21T18:21:42.170Z,77.30
2019-05-21T18:24:09.205Z,77.40
2019-05-21T18:26:35.981Z,77.10
2019-05-21T18:29:02.334Z,77.20
2019-05-21T18:31:28.624Z,77.30
2019-05-21T18:33:55.208Z,77.40
2019-05-21T18:36:21.897Z,77.50
2019-05-21T18:38:48.164Z,77.80
2019-05-21T18:41:15.022Z,78.00
2019-05-21T18:43:41.622Z,77.80
2019-05-21T18:46:08.038Z,78.00
2019-05-21T18:48:34.445Z,77.90
2019-05-21T18:51:01.012Z,78.10
2019-05-21T18:53:27.483Z,78.00
2019-05-21T18:55:53.973Z,77.90
2019-05-21T18:58:20.202Z,77.90
2019-05-21T19:00:46.672Z,78.00
2019-05-21T19:03:13.552Z,78.00
2019-05-21T19:05:40.157Z,78.20
2019-05-21T19:08:06.596Z,78.20
2019-05-21T19:10:32.927Z,78.40
2019-05-21T19:13:01.092Z,78.50
2019-05-21T19:15:28.106Z,78.70
2019-05-21T19:17:54.517Z,78.80
2019-05-21T19:20:22.138Z,78.80
2019-05-21T19:22:48.506Z,79.00
2019-05-21T19:25:15.394Z,78.70
2019-05-21T19:27:41.900Z,78.90
2019-05-21T19:30:09.514Z,78.90
2019-05-21T19:32:35.924Z,79.00
2019-05-21T19:35:05.847Z,79.10
2019-05-21T19:37:32.204Z,79.10
2019-05-21T19:39:58.382Z,79.10
2019-05-21T19:42:24.873Z,79.10
2019-05-21T19:44:51.263Z,78.90
2019-05-21T19:47:17.454Z,79.00
2019-05-21T19:49:43.670Z,78.90
2019-05-21T19:52:09.988Z,78.80
2019-05-21T19:54:36.176Z,78.70
2019-05-21T19:57:03.093Z,78.40
2019-05-21T19:59:29.364Z,78.40
2019-05-21T20:01:56.322Z,78.40
2019-05-21T20:04:23.185Z,78.10
2019-05-21T20:06:49.746Z,77.90
2019-05-21T20:09:16.872Z,77.90
2019-05-21T20:11:43.437Z,78.00
2019-05-21T20:14:09.648Z,78.10
2019-05-21T20:16:37.131Z,78.10
2019-05-21T20:19:04.482Z,78.00
2019-05-21T20:21:31.467Z,78.10
2019-05-21T20:23:57.833Z,78.20
2019-05-21T20:26:26.362Z,77.90
2019-05-21T20:28:53.410Z,78.00
2019-05-21T20:31:20.748Z,78.30
2019-05-21T20:33:49.309Z,78.40
2019-05-21T20:36:15.761Z,78.40
2019-05-21T20:38:42.882Z,78.30
2019-05-21T20:41:09.962Z,78.30
2019-05-21T20:43:36.732Z,78.40
2019-05-21T20:46:04.699Z,78.50
2019-05-21T20:48:33.173Z,78.80
2019-05-21T20:50:59.884Z,78.90
2019-05-21T20:53:26.300Z,78.80
2019-05-21T20:55:52.682Z,78.70
2019-05-21T20:58:19.519Z,78.90
2019-05-21T21:00:48.039Z,79.10
2019-05-21T21:03:14.453Z,79.20
2019-05-21T21:05:40.791Z,79.30
2019-05-21T21:08:08.067Z,79.40
2019-05-21T21:10:34.723Z,79.40
2019-05-21T21:13:01.662Z,79.40
2019-05-21T21:15:28.084Z,79.40
2019-05-21T21:17:54.443Z,79.60
2019-05-21T21:20:20.843Z,79.30
2019-05-21T21:22:47.370Z,79.40
2019-05-21T21:25:19.417Z,79.40
2019-05-21T21:27:45.976Z,79.50
2019-05-21T21:30:12.726Z,79.50
2019-05-21T21:32:39.249Z,79.70
2019-05-21T21:35:05.958Z,79.80
2019-05-21T21:37:33.053Z,80.10
2019-05-21T21:39:59.540Z,80.20
2019-05-21T21:42:25.734Z,80.20
2019-05-21T21:44:52.392Z,80.30
2019-05-21T21:47:18.949Z,80.20
2019-05-21T21:49:45.901Z,80.10
2019-05-21T21:52:14.136Z,80.30
2019-05-21T21:54:41.868Z,80.20
2019-05-21T21:57:08.248Z,79.90
2019-05-21T21:59:34.678Z,80.00
2019-05-21T22:02:25.994Z,80.10
2019-05-21T22:04:53.958Z,80.10
2019-05-21T22:07:22.080Z,80.20
2019-05-21T22:09:48.245Z,80.30
2019-05-21T22:12:16.363Z,80.30
2019-05-21T22:14:51.821Z,80.30
2019-05-21T22:17:12.889Z,80.40
2019-05-21T22:19:39.651Z,79.80
2019-05-21T22:22:06.564Z,79.60
2019-05-21T22:24:32.867Z,79.80
2019-05-21T22:26:59.097Z,79.90
2019-05-21T22:29:25.486Z,79.70
2019-05-21T22:31:51.942Z,79.60
2019-05-21T22:34:18.422Z,79.50
2019-05-21T22:36:44.822Z,79.40
2019-05-21T22:39:18.656Z,79.30
2019-05-21T22:41:44.934Z,78.90
2019-05-21T22:44:11.663Z,78.80
2019-05-21T22:46:37.844Z,79.10
2019-05-21T22:49:04.123Z,79.30
2019-05-21T22:51:30.336Z,79.20
2019-05-21T22:53:56.593Z,79.10
2019-05-21T22:56:22.781Z,79.20
2019-05-21T22:58:49.010Z,79.40
2019-05-21T23:01:15.798Z,79.50
2019-05-21T23:03:42.580Z,79.50
2019-05-21T23:06:09.166Z,79.70
2019-05-21T23:08:36.016Z,79.80
2019-05-21T23:11:02.217Z,79.80
2019-05-21T23:13:28.477Z,79.80
2019-05-21T23:15:55.748Z,79.50
2019-05-21T23:18:22.173Z,79.60
2019-05-21T23:20:48.994Z,79.70
2019-05-21T23:23:15.555Z,79.60
2019-05-21T23:25:42.987Z,79.70
2019-05-21T23:28:09.343Z,80.00
2019-05-21T23:30:35.540Z,79.90
2019-05-21T23:33:03.357Z,80.00
2019-05-21T23:35:29.753Z,80.10
2019-05-21T23:37:55.928Z,80.20
2019-05-21T23:40:23.733Z,80.20
2019-05-21T23:42:49.982Z,80.20
2019-05-21T23:45:16.767Z,80.20
2019-05-21T23:47:43.568Z,80.40
2019-05-21T23:50:12.385Z,80.30
2019-05-21T23:52:39.658Z,80.30
2019-05-21T23:55:06.884Z,80.30
2019-05-21T23:57:35.817Z,81.20
